sensor_id;sensor_type;location;lat;lon;timestamp;pressure;altitude;pressure_sealevel;temperature;humidity
79331;BME280;68797;49.782;19.054;2023-05-02T00:01:43;97147.19;;;11.31;58.12
79331;BME280;68797;49.782;19.054;2023-05-02T00:04:10;97148.03;;;11.32;57.12
79331;BME280;68797;49.782;19.054;2023-05-02T00:06:36;97142.53;;;11.37;57.72
79331;BME280;68797;49.782;19.054;2023-05-02T00:09:02;97147.00;;;11.36;57.15
79331;BME280;68797;49.782;19.054;2023-05-02T00:11:28;97142.50;;;11.38;56.62
79331;BME280;68797;49.782;19.054;2023-05-02T00:13:55;97151.44;;;11.35;57.00
79331;BME280;68797;49.782;19.054;2023-05-02T00:16:21;97143.47;;;11.35;56.45
79331;BME280;68797;49.782;19.054;2023-05-02T00:18:48;97141.63;;;11.38;56.45
79331;BME280;68797;49.782;19.054;2023-05-02T00:21:14;97144.41;;;11.34;55.73
79331;BME280;68797;49.782;19.054;2023-05-02T00:23:40;97133.78;;;11.34;56.33
79331;BME280;68797;49.782;19.054;2023-05-02T00:26:09;97155.78;;;11.38;55.64
79331;BME280;68797;49.782;19.054;2023-05-02T00:28:39;97130.19;;;11.35;54.90
79331;BME280;68797;49.782;19.054;2023-05-02T00:31:05;97125.94;;;11.31;55.02
79331;BME280;68797;49.782;19.054;2023-05-02T00:33:31;97152.53;;;11.30;54.61
79331;BME280;68797;49.782;19.054;2023-05-02T00:35:57;97134.78;;;11.30;54.95
79331;BME280;68797;49.782;19.054;2023-05-02T00:38:24;97145.38;;;11.32;54.81
79331;BME280;68797;49.782;19.054;2023-05-02T00:40:50;97153.22;;;11.35;54.17
79331;BME280;68797;49.782;19.054;2023-05-02T00:43:18;97152.25;;;11.38;54.25
79331;BME280;68797;49.782;19.054;2023-05-02T00:45:45;97151.38;;;11.37;54.28
79331;BME280;68797;49.782;19.054;2023-05-02T00:48:12;97149.53;;;11.39;53.67
79331;BME280;68797;49.782;19.054;2023-05-02T00:50:40;97141.47;;;11.42;54.83
79331;BME280;68797;49.782;19.054;2023-05-02T00:53:08;97143.41;;;11.37;54.35
79331;BME280;68797;49.782;19.054;2023-05-02T00:55:35;97132.78;;;11.37;54.34
79331;BME280;68797;49.782;19.054;2023-05-02T00:58:04;97145.88;;;11.42;53.61
79331;BME280;68797;49.782;19.054;2023-05-02T01:04:02;97143.28;;;11.40;52.49
79331;BME280;68797;49.782;19.054;2023-05-02T01:07:01;97140.94;;;11.32;52.59
79331;BME280;68797;49.782;19.054;2023-05-02T01:12:37;97134.97;;;11.26;52.01
79331;BME280;68797;49.782;19.054;2023-05-02T01:15:11;97133.19;;;11.26;52.64
79331;BME280;68797;49.782;19.054;2023-05-02T01:17:39;97139.41;;;11.25;51.89
79331;BME280;68797;49.782;19.054;2023-05-02T01:20:13;97143.13;;;11.21;52.10
79331;BME280;68797;49.782;19.054;2023-05-02T01:22:40;97128.97;;;11.21;53.11
79331;BME280;68797;49.782;19.054;2023-05-02T01:25:26;97136.94;;;11.21;51.33
79331;BME280;68797;49.782;19.054;2023-05-02T01:30:54;97142.34;;;11.18;51.87
79331;BME280;68797;49.782;19.054;2023-05-02T01:33:22;97144.03;;;11.20;51.98
79331;BME280;68797;49.782;19.054;2023-05-02T01:35:51;97141.53;;;11.16;52.16
79331;BME280;68797;49.782;19.054;2023-05-02T01:38:18;97138.88;;;11.16;51.56
79331;BME280;68797;49.782;19.054;2023-05-02T01:40:46;97139.59;;;11.21;52.12
79331;BME280;68797;49.782;19.054;2023-05-02T01:43:15;97152.00;;;11.20;51.01
79331;BME280;68797;49.782;19.054;2023-05-02T01:45:43;97148.38;;;11.23;51.24
79331;BME280;68797;49.782;19.054;2023-05-02T01:48:10;97154.59;;;11.22;51.38
79331;BME280;68797;49.782;19.054;2023-05-02T01:50:40;97156.53;;;11.17;52.54
79331;BME280;68797;49.782;19.054;2023-05-02T01:53:10;97142.56;;;11.12;51.11
79331;BME280;68797;49.782;19.054;2023-05-02T01:55:41;97147.44;;;11.24;51.83
79331;BME280;68797;49.782;19.054;2023-05-02T01:58:10;97145.84;;;11.20;51.44
79331;BME280;68797;49.782;19.054;2023-05-02T02:00:38;97155.84;;;11.12;51.34
79331;BME280;68797;49.782;19.054;2023-05-02T02:03:06;97154.06;;;11.12;51.24
79331;BME280;68797;49.782;19.054;2023-05-02T02:05:35;97157.41;;;11.17;51.29
79331;BME280;68797;49.782;19.054;2023-05-02T02:08:02;97155.91;;;11.10;51.00
79331;BME280;68797;49.782;19.054;2023-05-02T02:10:34;97156.72;;;11.12;51.41
79331;BME280;68797;49.782;19.054;2023-05-02T02:13:25;97159.25;;;11.15;51.59
79331;BME280;68797;49.782;19.054;2023-05-02T02:15:58;97156.06;;;11.05;52.04
79331;BME280;68797;49.782;19.054;2023-05-02T02:18:26;97159.63;;;11.04;51.29
79331;BME280;68797;49.782;19.054;2023-05-02T02:20:54;97151.03;;;10.98;52.20
79331;BME280;68797;49.782;19.054;2023-05-02T02:23:25;97162.28;;;11.04;51.33
79331;BME280;68797;49.782;19.054;2023-05-02T02:25:53;97157.78;;;11.06;51.92
79331;BME280;68797;49.782;19.054;2023-05-02T02:28:20;97158.88;;;11.01;51.32
79331;BME280;68797;49.782;19.054;2023-05-02T02:30:47;97169.78;;;10.93;52.26
79331;BME280;68797;49.782;19.054;2023-05-02T02:33:13;97159.00;;;10.98;51.06
79331;BME280;68797;49.782;19.054;2023-05-02T02:35:43;97164.31;;;10.98;52.25
79331;BME280;68797;49.782;19.054;2023-05-02T02:41:11;97161.88;;;10.92;51.55
79331;BME280;68797;49.782;19.054;2023-05-02T02:49:23;97159.25;;;10.90;51.05
79331;BME280;68797;49.782;19.054;2023-05-02T02:54:50;97148.41;;;10.96;50.21
79331;BME280;68797;49.782;19.054;2023-05-02T02:57:25;97166.91;;;10.99;50.77
79331;BME280;68797;49.782;19.054;2023-05-02T03:00:09;97162.41;;;11.01;50.30
79331;BME280;68797;49.782;19.054;2023-05-02T03:02:39;97173.03;;;11.01;50.21
79331;BME280;68797;49.782;19.054;2023-05-02T03:05:08;97152.78;;;10.99;50.15
79331;BME280;68797;49.782;19.054;2023-05-02T03:07:35;97165.00;;;11.03;49.55
79331;BME280;68797;49.782;19.054;2023-05-02T03:10:03;97165.56;;;11.13;49.94
79331;BME280;68797;49.782;19.054;2023-05-02T03:12:31;97163.03;;;11.10;48.97
79331;BME280;68797;49.782;19.054;2023-05-02T03:18:12;97169.69;;;11.21;49.07
79331;BME280;68797;49.782;19.054;2023-05-02T03:20:38;97172.66;;;11.12;48.52
79331;BME280;68797;49.782;19.054;2023-05-02T03:23:05;97168.22;;;11.13;48.24
79331;BME280;68797;49.782;19.054;2023-05-02T03:25:31;97181.16;;;11.22;49.97
79331;BME280;68797;49.782;19.054;2023-05-02T03:27:58;97166.84;;;11.26;48.36
79331;BME280;68797;49.782;19.054;2023-05-02T03:30:24;97186.31;;;11.26;48.24
79331;BME280;68797;49.782;19.054;2023-05-02T03:32:51;97181.66;;;11.33;47.51
79331;BME280;68797;49.782;19.054;2023-05-02T03:35:18;97171.44;;;11.46;46.87
79331;BME280;68797;49.782;19.054;2023-05-02T03:37:45;97192.69;;;11.46;47.79
79331;BME280;68797;49.782;19.054;2023-05-02T03:40:12;97182.81;;;11.49;47.79
79331;BME280;68797;49.782;19.054;2023-05-02T03:42:38;97180.22;;;11.48;47.75
79331;BME280;68797;49.782;19.054;2023-05-02T03:45:13;97189.59;;;11.58;47.39
79331;BME280;68797;49.782;19.054;2023-05-02T03:47:40;97184.25;;;11.58;48.28
79331;BME280;68797;49.782;19.054;2023-05-02T03:50:06;97183.34;;;11.59;47.57
79331;BME280;68797;49.782;19.054;2023-05-02T03:52:33;97194.72;;;11.62;48.13
79331;BME280;68797;49.782;19.054;2023-05-02T03:55:00;97199.06;;;11.65;48.37
79331;BME280;68797;49.782;19.054;2023-05-02T03:57:30;97184.72;;;11.69;47.94
79331;BME280;68797;49.782;19.054;2023-05-02T03:59:57;97197.66;;;11.80;48.07
79331;BME280;68797;49.782;19.054;2023-05-02T04:02:29;97192.34;;;11.80;46.40
79331;BME280;68797;49.782;19.054;2023-05-02T04:04:56;97196.59;;;11.84;45.14
79331;BME280;68797;49.782;19.054;2023-05-02T04:07:23;97195.19;;;11.97;46.43
79331;BME280;68797;49.782;19.054;2023-05-02T04:10:01;97201.56;;;12.16;46.36
79331;BME280;68797;49.782;19.054;2023-05-02T04:12:29;97207.63;;;12.20;47.01
79331;BME280;68797;49.782;19.054;2023-05-02T04:14:56;97195.69;;;12.30;47.10
79331;BME280;68797;49.782;19.054;2023-05-02T04:17:26;97199.97;;;12.34;47.18
79331;BME280;68797;49.782;19.054;2023-05-02T04:19:52;97189.31;;;12.34;47.46
79331;BME280;68797;49.782;19.054;2023-05-02T04:22:22;97190.44;;;12.50;46.17
79331;BME280;68797;49.782;19.054;2023-05-02T04:24:53;97200.63;;;12.61;47.06
79331;BME280;68797;49.782;19.054;2023-05-02T04:27:20;97196.06;;;12.65;45.77
79331;BME280;68797;49.782;19.054;2023-05-02T04:29:48;97187.38;;;12.82;45.87
79331;BME280;68797;49.782;19.054;2023-05-02T04:32:16;97200.31;;;12.91;45.98
79331;BME280;68797;49.782;19.054;2023-05-02T04:34:42;97204.88;;;13.09;45.79
79331;BME280;68797;49.782;19.054;2023-05-02T04:37:09;97197.25;;;13.22;45.36
79331;BME280;68797;49.782;19.054;2023-05-02T04:39:36;97187.84;;;13.33;46.12
79331;BME280;68797;49.782;19.054;2023-05-02T04:42:11;97195.28;;;13.46;45.71
79331;BME280;68797;49.782;19.054;2023-05-02T04:44:48;97188.47;;;13.59;43.29
79331;BME280;68797;49.782;19.054;2023-05-02T04:47:15;97196.22;;;13.65;44.62
79331;BME280;68797;49.782;19.054;2023-05-02T04:49:42;97199.75;;;13.84;43.45
79331;BME280;68797;49.782;19.054;2023-05-02T04:52:09;97186.94;;;13.92;43.56
79331;BME280;68797;49.782;19.054;2023-05-02T04:54:36;97198.31;;;13.96;45.46
79331;BME280;68797;49.782;19.054;2023-05-02T04:57:03;97196.53;;;14.15;44.59
79331;BME280;68797;49.782;19.054;2023-05-02T04:59:33;97183.63;;;14.25;44.36
79331;BME280;68797;49.782;19.054;2023-05-02T05:02:01;97194.81;;;14.33;44.45
79331;BME280;68797;49.782;19.054;2023-05-02T05:04:27;97202.78;;;14.52;43.75
79331;BME280;68797;49.782;19.054;2023-05-02T05:06:54;97201.50;;;14.61;43.72
79331;BME280;68797;49.782;19.054;2023-05-02T05:09:21;97185.81;;;14.72;42.60
79331;BME280;68797;49.782;19.054;2023-05-02T05:11:47;97187.09;;;14.82;41.22
79331;BME280;68797;49.782;19.054;2023-05-02T05:14:14;97186.09;;;15.02;43.99
79331;BME280;68797;49.782;19.054;2023-05-02T05:16:43;97183.91;;;15.10;42.62
79331;BME280;68797;49.782;19.054;2023-05-02T05:19:10;97203.69;;;15.23;42.77
79331;BME280;68797;49.782;19.054;2023-05-02T05:21:37;97202.13;;;15.36;43.21
79331;BME280;68797;49.782;19.054;2023-05-02T05:24:14;97171.84;;;15.36;43.41
79331;BME280;68797;49.782;19.054;2023-05-02T05:26:40;97187.63;;;15.58;42.71
79331;BME280;68797;49.782;19.054;2023-05-02T05:29:07;97197.78;;;15.68;44.31
79331;BME280;68797;49.782;19.054;2023-05-02T05:31:38;97193.94;;;15.74;43.51
79331;BME280;68797;49.782;19.054;2023-05-02T05:34:08;97196.94;;;15.84;43.33
79331;BME280;68797;49.782;19.054;2023-05-02T05:36:35;97197.59;;;15.89;42.28
79331;BME280;68797;49.782;19.054;2023-05-02T05:39:03;97209.16;;;15.89;42.42
79331;BME280;68797;49.782;19.054;2023-05-02T05:41:31;97206.72;;;15.85;40.72
79331;BME280;68797;49.782;19.054;2023-05-02T05:44:03;97204.66;;;15.90;40.39
79331;BME280;68797;49.782;19.054;2023-05-02T05:46:31;97202.00;;;15.90;41.43
79331;BME280;68797;49.782;19.054;2023-05-02T05:48:58;97207.66;;;15.84;41.79
79331;BME280;68797;49.782;19.054;2023-05-02T05:51:27;97218.88;;;15.75;39.53
79331;BME280;68797;49.782;19.054;2023-05-02T05:53:54;97220.16;;;16.01;39.34
79331;BME280;68797;49.782;19.054;2023-05-02T05:56:21;97208.19;;;16.71;37.99
79331;BME280;68797;49.782;19.054;2023-05-02T05:58:55;97208.63;;;17.25;37.91
79331;BME280;68797;49.782;19.054;2023-05-02T06:01:22;97211.41;;;17.67;38.35
79331;BME280;68797;49.782;19.054;2023-05-02T06:03:48;97205.41;;;17.92;38.39
79331;BME280;68797;49.782;19.054;2023-05-02T06:06:17;97202.19;;;17.87;37.83
79331;BME280;68797;49.782;19.054;2023-05-02T06:08:43;97219.72;;;18.21;37.22
79331;BME280;68797;49.782;19.054;2023-05-02T06:11:09;97214.16;;;18.24;35.75
79331;BME280;68797;49.782;19.054;2023-05-02T06:13:38;97216.63;;;18.27;37.58
79331;BME280;68797;49.782;19.054;2023-05-02T06:16:05;97216.41;;;18.59;36.71
79331;BME280;68797;49.782;19.054;2023-05-02T06:18:31;97222.34;;;19.05;36.37
79331;BME280;68797;49.782;19.054;2023-05-02T06:21:03;97229.97;;;19.38;36.28
79331;BME280;68797;49.782;19.054;2023-05-02T06:23:30;97228.75;;;19.57;35.82
79331;BME280;68797;49.782;19.054;2023-05-02T06:25:58;97223.00;;;19.49;34.66
79331;BME280;68797;49.782;19.054;2023-05-02T06:28:25;97227.00;;;19.43;38.18
79331;BME280;68797;49.782;19.054;2023-05-02T06:30:59;97229.59;;;19.17;37.95
79331;BME280;68797;49.782;19.054;2023-05-02T06:33:27;97223.19;;;19.06;36.86
79331;BME280;68797;49.782;19.054;2023-05-02T06:35:53;97229.25;;;19.09;38.34
79331;BME280;68797;49.782;19.054;2023-05-02T06:38:20;97231.66;;;19.27;39.04
79331;BME280;68797;49.782;19.054;2023-05-02T06:40:46;97228.13;;;19.26;37.76
79331;BME280;68797;49.782;19.054;2023-05-02T06:43:12;97229.28;;;19.22;37.77
79331;BME280;68797;49.782;19.054;2023-05-02T06:45:39;97232.91;;;19.48;39.04
79331;BME280;68797;49.782;19.054;2023-05-02T06:48:06;97233.41;;;19.67;39.30
79331;BME280;68797;49.782;19.054;2023-05-02T06:50:33;97235.25;;;19.80;39.69
79331;BME280;68797;49.782;19.054;2023-05-02T06:52:59;97228.69;;;19.84;39.42
79331;BME280;68797;49.782;19.054;2023-05-02T06:55:26;97229.13;;;19.90;37.18
79331;BME280;68797;49.782;19.054;2023-05-02T06:57:53;97233.88;;;19.99;36.98
79331;BME280;68797;49.782;19.054;2023-05-02T07:00:20;97240.75;;;20.16;39.12
79331;BME280;68797;49.782;19.054;2023-05-02T07:02:47;97234.19;;;20.20;36.40
79331;BME280;68797;49.782;19.054;2023-05-02T07:05:15;97232.00;;;20.38;39.45
79331;BME280;68797;49.782;19.054;2023-05-02T07:07:41;97242.03;;;20.49;37.68
79331;BME280;68797;49.782;19.054;2023-05-02T07:10:08;97237.50;;;20.37;38.67
79331;BME280;68797;49.782;19.054;2023-05-02T07:12:35;97233.75;;;20.52;39.11
79331;BME280;68797;49.782;19.054;2023-05-02T07:15:01;97233.75;;;20.52;36.35
79331;BME280;68797;49.782;19.054;2023-05-02T07:17:27;97234.75;;;20.51;37.45
79331;BME280;68797;49.782;19.054;2023-05-02T07:19:53;97240.91;;;20.77;38.88
79331;BME280;68797;49.782;19.054;2023-05-02T07:22:20;97245.03;;;20.70;35.96
79331;BME280;68797;49.782;19.054;2023-05-02T07:24:46;97253.78;;;20.73;38.47
79331;BME280;68797;49.782;19.054;2023-05-02T07:27:12;97247.09;;;20.66;38.64
79331;BME280;68797;49.782;19.054;2023-05-02T07:29:39;97247.94;;;20.67;42.51
79331;BME280;68797;49.782;19.054;2023-05-02T07:32:07;97257.81;;;20.42;37.36
79331;BME280;68797;49.782;19.054;2023-05-02T07:34:33;97252.94;;;20.35;38.42
79331;BME280;68797;49.782;19.054;2023-05-02T07:37:00;97254.78;;;20.47;39.64
79331;BME280;68797;49.782;19.054;2023-05-02T07:39:26;97244.28;;;20.68;37.72
79331;BME280;68797;49.782;19.054;2023-05-02T07:41:53;97250.56;;;20.92;37.25
79331;BME280;68797;49.782;19.054;2023-05-02T07:44:20;97253.22;;;21.05;35.17
79331;BME280;68797;49.782;19.054;2023-05-02T07:46:46;97243.50;;;21.39;38.48
79331;BME280;68797;49.782;19.054;2023-05-02T07:49:12;97253.03;;;21.56;37.14
79331;BME280;68797;49.782;19.054;2023-05-02T07:51:39;97254.47;;;21.49;39.22
79331;BME280;68797;49.782;19.054;2023-05-02T07:54:19;97246.19;;;21.39;36.94
79331;BME280;68797;49.782;19.054;2023-05-02T07:56:46;97254.28;;;21.39;38.74
79331;BME280;68797;49.782;19.054;2023-05-02T07:59:12;97257.00;;;21.39;36.90
79331;BME280;68797;49.782;19.054;2023-05-02T08:01:39;97255.38;;;21.60;39.32
79331;BME280;68797;49.782;19.054;2023-05-02T08:04:07;97258.97;;;21.72;38.90
79331;BME280;68797;49.782;19.054;2023-05-02T08:06:34;97265.22;;;21.72;37.34
79331;BME280;68797;49.782;19.054;2023-05-02T08:09:01;97258.09;;;21.71;38.86
79331;BME280;68797;49.782;19.054;2023-05-02T08:11:28;97260.31;;;21.66;39.25
79331;BME280;68797;49.782;19.054;2023-05-02T08:13:54;97261.28;;;21.65;39.49
79331;BME280;68797;49.782;19.054;2023-05-02T08:16:20;97258.31;;;21.57;37.18
79331;BME280;68797;49.782;19.054;2023-05-02T08:18:46;97262.47;;;21.61;40.39
79331;BME280;68797;49.782;19.054;2023-05-02T08:21:13;97264.03;;;21.77;39.01
79331;BME280;68797;49.782;19.054;2023-05-02T08:23:40;97263.47;;;21.95;36.93
79331;BME280;68797;49.782;19.054;2023-05-02T08:26:07;97267.03;;;21.96;37.36
79331;BME280;68797;49.782;19.054;2023-05-02T08:28:36;97251.19;;;22.02;39.30
79331;BME280;68797;49.782;19.054;2023-05-02T08:31:02;97262.78;;;22.16;42.94
79331;BME280;68797;49.782;19.054;2023-05-02T08:33:28;97248.59;;;21.90;37.54
79331;BME280;68797;49.782;19.054;2023-05-02T08:35:54;97254.50;;;21.95;37.06
79331;BME280;68797;49.782;19.054;2023-05-02T08:38:21;97255.63;;;22.03;42.98
79331;BME280;68797;49.782;19.054;2023-05-02T08:40:47;97255.97;;;21.88;35.76
79331;BME280;68797;49.782;19.054;2023-05-02T08:43:15;97260.16;;;21.57;36.63
79331;BME280;68797;49.782;19.054;2023-05-02T08:45:43;97269.06;;;21.46;36.18
79331;BME280;68797;49.782;19.054;2023-05-02T08:48:11;97257.41;;;21.45;35.91
79331;BME280;68797;49.782;19.054;2023-05-02T08:50:39;97262.72;;;21.58;36.91
79331;BME280;68797;49.782;19.054;2023-05-02T08:53:11;97270.22;;;21.55;36.60
79331;BME280;68797;49.782;19.054;2023-05-02T08:55:39;97260.16;;;21.57;36.41
79331;BME280;68797;49.782;19.054;2023-05-02T08:58:08;97261.22;;;21.78;37.24
79331;BME280;68797;49.782;19.054;2023-05-02T09:00:40;97259.78;;;21.96;35.66
79331;BME280;68797;49.782;19.054;2023-05-02T09:06:20;97251.38;;;22.12;36.22
79331;BME280;68797;49.782;19.054;2023-05-02T09:08:48;97258.38;;;22.15;35.10
79331;BME280;68797;49.782;19.054;2023-05-02T09:11:15;97251.00;;;22.28;34.68
79331;BME280;68797;49.782;19.054;2023-05-02T09:13:49;97258.19;;;22.51;35.38
79331;BME280;68797;49.782;19.054;2023-05-02T09:16:18;97261.97;;;22.49;36.96
79331;BME280;68797;49.782;19.054;2023-05-02T09:18:49;97263.19;;;22.33;33.76
79331;BME280;68797;49.782;19.054;2023-05-02T09:21:21;97258.06;;;21.95;34.01
79331;BME280;68797;49.782;19.054;2023-05-02T09:23:55;97266.53;;;22.02;35.80
79331;BME280;68797;49.782;19.054;2023-05-02T09:28:59;97259.88;;;22.19;35.96
79331;BME280;68797;49.782;19.054;2023-05-02T09:31:28;97276.22;;;22.28;36.50
79331;BME280;68797;49.782;19.054;2023-05-02T09:34:09;97268.50;;;22.00;34.58
79331;BME280;68797;49.782;19.054;2023-05-02T09:36:40;97273.06;;;21.99;35.47
79331;BME280;68797;49.782;19.054;2023-05-02T09:39:16;97277.09;;;22.05;36.46
79331;BME280;68797;49.782;19.054;2023-05-02T09:41:44;97274.66;;;22.02;35.89
79331;BME280;68797;49.782;19.054;2023-05-02T09:44:13;97270.34;;;21.99;34.48
79331;BME280;68797;49.782;19.054;2023-05-02T09:46:45;97279.06;;;22.03;35.79
79331;BME280;68797;49.782;19.054;2023-05-02T09:49:12;97281.25;;;21.87;35.75
79331;BME280;68797;49.782;19.054;2023-05-02T09:51:39;97269.63;;;21.97;35.34
79331;BME280;68797;49.782;19.054;2023-05-02T09:54:06;97275.44;;;21.80;35.18
79331;BME280;68797;49.782;19.054;2023-05-02T09:56:51;97276.59;;;21.89;36.56
79331;BME280;68797;49.782;19.054;2023-05-02T09:59:17;97274.34;;;22.07;35.97
79331;BME280;68797;49.782;19.054;2023-05-02T10:01:44;97281.38;;;22.31;38.61
79331;BME280;68797;49.782;19.054;2023-05-02T10:04:13;97276.84;;;22.43;34.87
79331;BME280;68797;49.782;19.054;2023-05-02T10:06:44;97276.59;;;22.80;37.38
79331;BME280;68797;49.782;19.054;2023-05-02T10:09:10;97261.88;;;22.95;36.23
79331;BME280;68797;49.782;19.054;2023-05-02T10:11:43;97287.69;;;22.77;32.99
79331;BME280;68797;49.782;19.054;2023-05-02T10:14:11;97271.69;;;22.74;32.75
79331;BME280;68797;49.782;19.054;2023-05-02T10:17:00;97287.53;;;22.56;35.59
79331;BME280;68797;49.782;19.054;2023-05-02T10:19:41;97280.88;;;22.38;36.33
79331;BME280;68797;49.782;19.054;2023-05-02T10:22:11;97291.63;;;21.69;34.82
79331;BME280;68797;49.782;19.054;2023-05-02T10:24:39;97300.53;;;21.34;36.58
79331;BME280;68797;49.782;19.054;2023-05-02T10:27:06;97290.97;;;21.17;36.65
79331;BME280;68797;49.782;19.054;2023-05-02T10:29:33;97304.66;;;21.27;37.85
79331;BME280;68797;49.782;19.054;2023-05-02T10:32:02;97304.78;;;21.26;40.75
79331;BME280;68797;49.782;19.054;2023-05-02T10:34:31;97297.72;;;21.36;40.29
79331;BME280;68797;49.782;19.054;2023-05-02T10:36:58;97304.41;;;20.94;37.17
79331;BME280;68797;49.782;19.054;2023-05-02T10:39:28;97309.72;;;20.82;40.00
79331;BME280;68797;49.782;19.054;2023-05-02T10:41:58;97315.88;;;20.72;42.37
79331;BME280;68797;49.782;19.054;2023-05-02T10:44:35;97313.00;;;20.62;42.18
79331;BME280;68797;49.782;19.054;2023-05-02T10:47:27;97318.38;;;20.75;42.85
79331;BME280;68797;49.782;19.054;2023-05-02T10:49:59;97306.97;;;20.46;40.94
79331;BME280;68797;49.782;19.054;2023-05-02T10:52:35;97308.03;;;20.69;41.43
79331;BME280;68797;49.782;19.054;2023-05-02T11:00:27;97307.94;;;20.57;43.19
79331;BME280;68797;49.782;19.054;2023-05-02T11:02:54;97313.31;;;20.70;43.10
79331;BME280;68797;49.782;19.054;2023-05-02T11:05:22;97309.34;;;20.63;42.38
79331;BME280;68797;49.782;19.054;2023-05-02T11:07:49;97305.00;;;20.60;41.30
79331;BME280;68797;49.782;19.054;2023-05-02T11:12:45;97312.41;;;20.82;41.74
79331;BME280;68797;49.782;19.054;2023-05-02T11:18:01;97308.66;;;21.22;41.92
79331;BME280;68797;49.782;19.054;2023-05-02T11:20:29;97303.25;;;21.22;42.35
79331;BME280;68797;49.782;19.054;2023-05-02T11:23:19;97291.66;;;21.08;42.77
79331;BME280;68797;49.782;19.054;2023-05-02T11:25:55;97306.75;;;21.11;42.25
79331;BME280;68797;49.782;19.054;2023-05-02T11:30:59;97312.41;;;20.95;41.63
79331;BME280;68797;49.782;19.054;2023-05-02T11:33:27;97314.31;;;21.06;42.68
79331;BME280;68797;49.782;19.054;2023-05-02T11:35:54;97312.19;;;20.98;41.10
79331;BME280;68797;49.782;19.054;2023-05-02T11:38:23;97317.63;;;20.85;41.70
79331;BME280;68797;49.782;19.054;2023-05-02T11:43:18;97316.22;;;20.67;42.31
79331;BME280;68797;49.782;19.054;2023-05-02T11:45:47;97309.53;;;20.22;43.01
79331;BME280;68797;49.782;19.054;2023-05-02T11:48:16;97314.81;;;20.23;40.43
79331;BME280;68797;49.782;19.054;2023-05-02T11:50:51;97320.88;;;20.40;43.99
79331;BME280;68797;49.782;19.054;2023-05-02T11:53:22;97306.41;;;20.41;42.75
79331;BME280;68797;49.782;19.054;2023-05-02T11:55:54;97307.59;;;20.24;41.93
79331;BME280;68797;49.782;19.054;2023-05-02T11:58:27;97311.13;;;20.24;44.27
79331;BME280;68797;49.782;19.054;2023-05-02T12:01:11;97322.66;;;20.39;42.95
79331;BME280;68797;49.782;19.054;2023-05-02T12:03:41;97320.41;;;20.20;42.08
79331;BME280;68797;49.782;19.054;2023-05-02T12:06:11;97316.53;;;20.12;42.38
79331;BME280;68797;49.782;19.054;2023-05-02T12:08:39;97312.97;;;20.24;43.77
79331;BME280;68797;49.782;19.054;2023-05-02T12:11:06;97319.09;;;20.39;45.23
79331;BME280;68797;49.782;19.054;2023-05-02T12:13:32;97319.16;;;20.51;43.10
79331;BME280;68797;49.782;19.054;2023-05-02T12:15:58;97320.88;;;20.40;42.45
79331;BME280;68797;49.782;19.054;2023-05-02T12:18:26;97326.31;;;20.13;41.07
79331;BME280;68797;49.782;19.054;2023-05-02T12:20:54;97320.28;;;20.09;41.33
79331;BME280;68797;49.782;19.054;2023-05-02T12:23:23;97325.13;;;20.17;44.58
79331;BME280;68797;49.782;19.054;2023-05-02T12:25:49;97330.31;;;20.07;42.72
79331;BME280;68797;49.782;19.054;2023-05-02T12:28:17;97327.41;;;20.36;43.65
79331;BME280;68797;49.782;19.054;2023-05-02T12:30:46;97323.13;;;20.46;44.12
79331;BME280;68797;49.782;19.054;2023-05-02T12:33:13;97325.50;;;20.50;41.90
79331;BME280;68797;49.782;19.054;2023-05-02T12:35:40;97320.88;;;20.40;43.17
79331;BME280;68797;49.782;19.054;2023-05-02T12:38:15;97326.56;;;20.22;42.04
79331;BME280;68797;49.782;19.054;2023-05-02T12:40:47;97330.97;;;20.23;43.78
79331;BME280;68797;49.782;19.054;2023-05-02T12:43:14;97327.81;;;20.17;43.53
79331;BME280;68797;49.782;19.054;2023-05-02T12:45:40;97333.56;;;20.25;43.01
79331;BME280;68797;49.782;19.054;2023-05-02T12:48:24;97333.34;;;20.28;45.09
79331;BME280;68797;49.782;19.054;2023-05-02T12:50:53;97337.34;;;20.22;42.48
79331;BME280;68797;49.782;19.054;2023-05-02T12:53:43;97334.56;;;20.49;45.54
79331;BME280;68797;49.782;19.054;2023-05-02T12:56:13;97339.81;;;20.38;44.86
79331;BME280;68797;49.782;19.054;2023-05-02T12:58:41;97344.44;;;20.23;43.84
79331;BME280;68797;49.782;19.054;2023-05-02T13:01:09;97336.88;;;20.28;43.53
79331;BME280;68797;49.782;19.054;2023-05-02T13:03:36;97348.75;;;20.26;44.49
79331;BME280;68797;49.782;19.054;2023-05-02T13:06:02;97342.31;;;20.41;46.19
79331;BME280;68797;49.782;19.054;2023-05-02T13:08:28;97342.22;;;20.43;43.34
79331;BME280;68797;49.782;19.054;2023-05-02T13:10:55;97342.16;;;20.17;43.13
79331;BME280;68797;49.782;19.054;2023-05-02T13:13:21;97340.63;;;19.88;44.48
79331;BME280;68797;49.782;19.054;2023-05-02T13:15:48;97327.56;;;19.55;45.04
79331;BME280;68797;49.782;19.054;2023-05-02T13:18:14;97354.78;;;19.64;45.46
79331;BME280;68797;49.782;19.054;2023-05-02T13:20:41;97336.31;;;19.58;45.11
79331;BME280;68797;49.782;19.054;2023-05-02T13:23:07;97341.31;;;19.64;45.15
79331;BME280;68797;49.782;19.054;2023-05-02T13:25:33;97334.00;;;19.66;45.84
79331;BME280;68797;49.782;19.054;2023-05-02T13:27:59;97349.00;;;19.83;47.18
79331;BME280;68797;49.782;19.054;2023-05-02T13:30:25;97353.72;;;19.80;46.17
79331;BME280;68797;49.782;19.054;2023-05-02T13:32:51;97354.16;;;19.73;46.26
79331;BME280;68797;49.782;19.054;2023-05-02T13:35:18;97356.06;;;19.44;45.54
79331;BME280;68797;49.782;19.054;2023-05-02T13:37:44;97356.53;;;19.10;45.14
79331;BME280;68797;49.782;19.054;2023-05-02T13:40:11;97352.63;;;18.87;47.47
79331;BME280;68797;49.782;19.054;2023-05-02T13:42:37;97362.28;;;18.61;50.92
79331;BME280;68797;49.782;19.054;2023-05-02T13:45:03;97383.69;;;18.34;53.16